Agostonmajor, Hungary

7:32 PM CEST on April 27, 2017 (GMT +0200)
LóKapu Major/Nic's Place | | Change Station

Elev 430 ft 47.02 °N, 19.49 °E | Updated 1 second ago

Rain
Rain
62.6 °F
Feels Like 62.6 °F
N
0.0
Wind Variable Wind from ENE
Gusts 0.0 mph

Today
High -- | Low -- °F
--% Chance of Precip.
Yesterday
High -- | Low -- °F
Precip. -- in
Pressure 29.86 in
Visibility 3.7 miles
Clouds Few 400 ft
Scattered Clouds 3800 ft
Mostly Cloudy 8000 ft
Dew Point 42 °F
Humidity 46%
Rainfall 0.00 in
Snow Depth Not available.
5:32 AM 7:47 PM
New Moon, 2% visible
METAR LHBP 271700Z 33005KT 6000 -RA FEW004 SCT038 BKN080 15/12 Q1011 NOSIG
Pressure 29.86 in
Visibility 3.7 miles
Clouds Few 400 ft
Scattered Clouds 3800 ft
Mostly Cloudy 8000 ft
Dew Point 42 °F
Humidity 46%
Rainfall 0.00 in
Snow Depth Not available.
5:32 AM 7:47 PM
New Moon, 2% visible
METAR LHBP 271700Z 33005KT 6000 -RA FEW004 SCT038 BKN080 15/12 Q1011 NOSIG

Get Severe Weather Alerts

Thanks for signing up!

Be on the lookout for a verification email in your inbox.

You'll start receiving the daily forecast at 8 AM.

×

10-Day Weather Forecast

×

Almanac

Astronomy

Apr. 27, 2017 Rise Set
Actual Time
Civil Twilight
Nautical Twilight
Astronomical Twilight
Moon
Length of Visible Light
Length of Day
Tomorrow will be .
, % of the Moon is Illuminated

Today's Extremes

Country Highs Country Lows

Community

WunderPhotos

WunderBlog® & News

Nearby

Air Quality

  Air Quality AQ Index Pollutant
Not available.

Snow Depth

Station Depth Elevation

Earthquake Activity

City Distance Mag. Time & Date
Minimum magnitude displayed is 2.5.

Coastal Water Temperatures

Place Temperature

Stations

Nearby Weather Stations

Station Location Temp. Windchill Dew Point Humidity Wind Precip. Elev Updated Type